createdAt,value
2018-07-17T00:01:46.412Z,100204.92
2018-07-17T00:04:21.644Z,100201.09
2018-07-17T00:06:50.446Z,100200.77
2018-07-17T00:09:22.659Z,100205.12
2018-07-17T00:11:51.330Z,100208.15
2018-07-17T00:14:20.514Z,100215.56
2018-07-17T00:16:55.318Z,100220.63
2018-07-17T00:19:23.955Z,100217.43
2018-07-17T00:21:52.609Z,100219.98
2018-07-17T00:24:21.322Z,100219.47
2018-07-17T00:26:50.285Z,100214.78
2018-07-17T00:29:18.962Z,100213.96
2018-07-17T00:31:47.881Z,100206.23
2018-07-17T00:34:16.640Z,100211.80
2018-07-17T00:36:51.796Z,100212.81
2018-07-17T00:39:20.557Z,100210.98
2018-07-17T00:41:49.314Z,100203.75
2018-07-17T00:44:18.236Z,100204.30
2018-07-17T00:46:47.255Z,100208.95
2018-07-17T00:49:15.954Z,100212.84
2018-07-17T00:51:44.602Z,100214.16
2018-07-17T00:54:14.197Z,100212.33
2018-07-17T00:56:43.310Z,100212.17
2018-07-17T00:59:11.981Z,100208.83
2018-07-17T01:01:45.739Z,100216.20
2018-07-17T01:04:19.669Z,100219.20
2018-07-17T01:06:53.702Z,100221.06
2018-07-17T01:09:28.441Z,100221.03
2018-07-17T01:12:03.562Z,100219.69
2018-07-17T01:14:42.198Z,100212.84
2018-07-17T01:17:11.069Z,100213.16
2018-07-17T01:19:45.614Z,100208.47
2018-07-17T01:22:14.761Z,100205.27
2018-07-17T01:25:46.752Z,100201.06
2018-07-17T01:28:15.542Z,100200.70
2018-07-17T01:30:45.750Z,100199.84
2018-07-17T01:33:14.450Z,100202.02
2018-07-17T01:35:43.035Z,100195.33
2018-07-17T01:38:12.164Z,100198.33
2018-07-17T01:40:40.984Z,100193.14
2018-07-17T01:43:09.658Z,100198.99
2018-07-17T01:45:38.313Z,100191.48
2018-07-17T01:48:07.320Z,100191.97
2018-07-17T01:50:36.104Z,100192.95
2018-07-17T01:53:04.844Z,100191.80
2018-07-17T01:55:33.459Z,100191.30
2018-07-17T01:58:04.198Z,100187.60
2018-07-17T02:00:32.821Z,100190.81
2018-07-17T02:03:05.493Z,100191.30
2018-07-17T02:05:34.210Z,100189.47
2018-07-17T02:08:03.656Z,100194.81
2018-07-17T02:10:32.327Z,100188.92
2018-07-17T02:13:01.454Z,100195.28
2018-07-17T02:15:30.123Z,100189.39
2018-07-17T02:17:58.995Z,100186.52
2018-07-17T02:20:33.900Z,100186.86
2018-07-17T02:23:04.282Z,100178.33
2018-07-17T02:25:33.038Z,100184.50
2018-07-17T02:28:02.364Z,100187.16
2018-07-17T02:30:34.125Z,100194.80
2018-07-17T02:33:03.296Z,100204.24
2018-07-17T02:35:32.094Z,100204.67
2018-07-17T02:38:00.824Z,100212.86
2018-07-17T02:40:29.983Z,100216.57
2018-07-17T02:42:59.283Z,100214.20
2018-07-17T02:48:07.624Z,100221.37
2018-07-17T02:50:41.320Z,100216.87
2018-07-17T02:53:10.191Z,100222.16
2018-07-17T02:55:39.062Z,100220.93
2018-07-17T02:58:07.644Z,100221.00
2018-07-17T03:00:38.874Z,100219.41
2018-07-17T03:03:07.565Z,100227.13
2018-07-17T03:05:36.381Z,100226.80
2018-07-17T03:08:05.510Z,100224.78
2018-07-17T03:10:35.385Z,100229.12
2018-07-17T03:13:04.224Z,100234.69
2018-07-17T03:15:39.573Z,100231.46
2018-07-17T03:18:08.562Z,100233.70
2018-07-17T03:20:37.220Z,100241.97
2018-07-17T03:23:05.856Z,100246.94
2018-07-17T03:25:34.526Z,100242.49
2018-07-17T03:28:05.080Z,100244.89
2018-07-17T03:30:34.508Z,100249.05
2018-07-17T03:33:03.696Z,100243.18
2018-07-17T03:35:32.433Z,100243.42
2018-07-17T03:38:01.327Z,100243.38
2018-07-17T03:40:36.626Z,100246.16
2018-07-17T03:43:05.730Z,100255.30
2018-07-17T03:45:34.399Z,100255.78
2018-07-17T03:48:04.089Z,100247.24
2018-07-17T03:50:33.095Z,100259.05
2018-07-17T03:53:01.783Z,100254.35
2018-07-17T03:55:31.734Z,100248.73
2018-07-17T04:00:28.151Z,100258.20
2018-07-17T04:02:57.506Z,100264.72
2018-07-17T04:05:26.272Z,100268.84
2018-07-17T04:07:54.982Z,100273.86
2018-07-17T04:10:23.646Z,100272.84
2018-07-17T04:12:54.132Z,100274.32
2018-07-17T04:15:22.914Z,100281.53
2018-07-17T04:17:51.966Z,100283.45
2018-07-17T04:20:20.762Z,100284.53
2018-07-17T04:22:50.608Z,100279.89
2018-07-17T04:25:20.164Z,100274.86
2018-07-17T04:27:54.618Z,100268.63
2018-07-17T04:30:23.420Z,100281.32
2018-07-17T04:32:54.062Z,100285.95
2018-07-17T04:35:22.756Z,100287.41
2018-07-17T04:37:53.604Z,100289.80
2018-07-17T04:40:22.624Z,100291.31
2018-07-17T04:42:51.447Z,100290.61
2018-07-17T04:45:20.151Z,100291.77
2018-07-17T04:47:48.968Z,100291.41
2018-07-17T04:50:18.486Z,100297.01
2018-07-17T04:52:47.153Z,100295.73
2018-07-17T04:55:21.908Z,100297.23
2018-07-17T04:57:51.026Z,100293.25
2018-07-17T05:00:26.478Z,100300.06
2018-07-17T05:02:55.145Z,100297.97
2018-07-17T05:05:23.911Z,100293.88
2018-07-17T05:07:52.819Z,100294.56
2018-07-17T05:10:26.667Z,100298.70
2018-07-17T05:12:55.415Z,100303.72
2018-07-17T05:17:57.103Z,100305.98
2018-07-17T05:20:25.736Z,100307.77
2018-07-17T05:22:54.362Z,100311.64
2018-07-17T05:25:23.240Z,100309.30
2018-07-17T05:27:51.843Z,100315.53
2018-07-17T05:30:20.674Z,100320.03
2018-07-17T05:32:49.313Z,100324.61
2018-07-17T05:35:17.990Z,100328.02
2018-07-17T05:37:46.546Z,100324.56
2018-07-17T05:40:15.758Z,100333.92
2018-07-17T05:42:44.416Z,100335.22
2018-07-17T05:45:12.951Z,100339.34
2018-07-17T05:47:45.745Z,100334.88
2018-07-17T05:50:14.275Z,100333.92
2018-07-17T05:52:42.830Z,100329.75
2018-07-17T05:55:11.864Z,100321.57
2018-07-17T05:57:40.556Z,100327.23
2018-07-17T06:00:09.869Z,100328.22
2018-07-17T06:02:38.467Z,100328.09
2018-07-17T06:05:07.605Z,100328.20
2018-07-17T06:07:36.742Z,100330.73
2018-07-17T06:10:06.892Z,100335.17
2018-07-17T06:12:35.537Z,100330.73
2018-07-17T06:15:04.668Z,100339.47
2018-07-17T06:17:33.231Z,100339.19
2018-07-17T06:20:02.518Z,100338.11
2018-07-17T06:22:31.103Z,100329.88
2018-07-17T06:25:00.119Z,100333.69
2018-07-17T06:27:28.741Z,100333.36
2018-07-17T06:29:57.327Z,100325.35
2018-07-17T06:32:26.287Z,100331.01
2018-07-17T06:34:55.043Z,100345.50
2018-07-17T06:37:24.278Z,100347.56
2018-07-17T06:39:52.889Z,100340.94
2018-07-17T06:42:21.829Z,100347.09
2018-07-17T06:44:50.498Z,100347.36
2018-07-17T06:47:19.103Z,100348.64
2018-07-17T06:49:47.812Z,100352.25
2018-07-17T06:52:16.934Z,100342.81
2018-07-17T06:54:45.545Z,100341.37
2018-07-17T06:57:15.515Z,100335.59
2018-07-17T06:59:44.125Z,100335.30
2018-07-17T07:02:12.945Z,100346.03
2018-07-17T07:04:41.473Z,100348.33
2018-07-17T07:07:10.330Z,100349.17
2018-07-17T07:09:39.232Z,100346.84
2018-07-17T07:12:09.065Z,100342.30
2018-07-17T07:14:37.991Z,100341.81
2018-07-17T07:17:07.136Z,100346.52
2018-07-17T07:19:36.406Z,100344.70
2018-07-17T07:22:05.708Z,100342.70
2018-07-17T07:24:34.264Z,100346.23
2018-07-17T07:27:03.104Z,100348.56
2018-07-17T07:29:31.748Z,100341.36
2018-07-17T07:32:00.279Z,100343.38
2018-07-17T07:34:28.834Z,100345.75
2018-07-17T07:36:58.574Z,100344.67
2018-07-17T07:39:27.153Z,100340.00
2018-07-17T07:41:55.686Z,100336.36
2018-07-17T07:44:25.559Z,100341.24
2018-07-17T07:46:54.125Z,100342.09
2018-07-17T07:49:23.497Z,100337.23
2018-07-17T07:51:52.102Z,100339.13
2018-07-17T07:54:21.112Z,100338.95
2018-07-17T07:56:57.442Z,100340.78
2018-07-17T07:59:33.431Z,100336.75
2018-07-17T08:02:02.893Z,100342.48
2018-07-17T08:04:31.533Z,100337.41
2018-07-17T08:07:00.591Z,100341.11
2018-07-17T08:09:29.138Z,100339.42
2018-07-17T08:11:57.806Z,100342.58
2018-07-17T08:14:26.306Z,100341.08
2018-07-17T08:16:55.013Z,100337.71
2018-07-17T08:19:23.604Z,100337.22
2018-07-17T08:21:52.641Z,100343.25
2018-07-17T08:24:21.471Z,100341.87
2018-07-17T08:26:50.736Z,100339.03
2018-07-17T08:29:19.329Z,100336.72
2018-07-17T08:31:48.055Z,100339.22
2018-07-17T08:34:17.319Z,100340.20
2018-07-17T08:36:47.494Z,100342.03
2018-07-17T08:39:16.395Z,100338.97
2018-07-17T08:41:45.437Z,100336.23
2018-07-17T08:44:14.485Z,100343.22
2018-07-17T08:46:43.891Z,100340.38
2018-07-17T08:49:12.635Z,100339.95
2018-07-17T08:51:41.524Z,100340.22
2018-07-17T08:54:10.791Z,100338.31
2018-07-17T08:56:40.016Z,100348.33
2018-07-17T08:59:08.920Z,100347.61
2018-07-17T09:01:37.659Z,100346.89
2018-07-17T09:04:07.575Z,100346.55
2018-07-17T09:06:36.159Z,100347.58
2018-07-17T09:09:05.729Z,100349.55
2018-07-17T09:11:34.390Z,100351.67
2018-07-17T09:14:04.790Z,100353.13
2018-07-17T09:16:33.561Z,100352.91
2018-07-17T09:19:02.110Z,100349.06
2018-07-17T09:21:30.943Z,100354.17
2018-07-17T09:23:59.543Z,100350.73
2018-07-17T09:26:41.684Z,100342.64
2018-07-17T09:29:22.319Z,100347.53
2018-07-17T09:31:51.181Z,100344.34
2018-07-17T09:34:19.865Z,100342.51
2018-07-17T09:36:49.657Z,100344.94
2018-07-17T09:39:18.237Z,100344.88
2018-07-17T09:41:46.823Z,100347.33
2018-07-17T09:44:15.689Z,100347.08
2018-07-17T09:46:44.493Z,100349.44
2018-07-17T09:49:13.071Z,100346.20
2018-07-17T09:51:42.972Z,100341.98
2018-07-17T09:54:11.558Z,100344.77
2018-07-17T09:56:40.738Z,100346.34
2018-07-17T09:59:09.599Z,100340.09
2018-07-17T10:01:43.243Z,100345.05
2018-07-17T10:04:11.929Z,100343.91
2018-07-17T10:06:40.481Z,100348.09
2018-07-17T10:09:09.058Z,100344.97
2018-07-17T10:11:38.066Z,100339.84
2018-07-17T10:14:06.828Z,100343.33
2018-07-17T10:16:35.522Z,100336.77
2018-07-17T10:19:04.817Z,100333.67
2018-07-17T10:21:33.391Z,100335.13
2018-07-17T10:24:03.914Z,100339.09
2018-07-17T10:26:32.937Z,100335.75
2018-07-17T10:29:02.279Z,100332.41
2018-07-17T10:31:30.864Z,100321.49
2018-07-17T10:33:59.465Z,100319.31
2018-07-17T10:36:28.132Z,100314.33
2018-07-17T10:38:57.040Z,100311.47
2018-07-17T10:41:25.721Z,100306.96
2018-07-17T10:43:54.431Z,100295.69
2018-07-17T10:46:23.287Z,100300.41
2018-07-17T10:48:51.891Z,100303.16
2018-07-17T10:51:20.904Z,100303.48
2018-07-17T10:53:49.940Z,100302.94
2018-07-17T10:56:18.806Z,100296.86
2018-07-17T10:58:47.388Z,100302.33
2018-07-17T11:01:16.229Z,100307.92
2018-07-17T11:03:44.887Z,100309.98
2018-07-17T11:06:14.237Z,100312.73
2018-07-17T11:08:46.677Z,100305.08
2018-07-17T11:11:15.426Z,100318.58
2018-07-17T11:13:44.201Z,100314.65
2018-07-17T11:16:13.748Z,100316.12
2018-07-17T11:18:42.405Z,100317.00
2018-07-17T11:21:11.798Z,100315.97
2018-07-17T11:23:40.801Z,100320.66
2018-07-17T11:26:09.463Z,100321.20
2018-07-17T11:28:38.056Z,100332.41
2018-07-17T11:31:07.447Z,100326.45
2018-07-17T11:33:36.463Z,100345.69
2018-07-17T11:36:06.217Z,100355.50
2018-07-17T11:38:36.236Z,100350.27
2018-07-17T11:41:07.063Z,100352.83
2018-07-17T11:43:35.782Z,100355.37
2018-07-17T11:46:05.772Z,100361.52
2018-07-17T11:48:34.974Z,100347.03
2018-07-17T11:51:04.060Z,100353.48
2018-07-17T11:53:33.925Z,100355.72
2018-07-17T11:56:03.091Z,100347.30
2018-07-17T11:58:31.905Z,100348.29
2018-07-17T12:01:01.564Z,100342.30
2018-07-17T12:03:30.493Z,100346.45
2018-07-17T12:05:59.522Z,100345.98
2018-07-17T12:08:29.567Z,100353.13
2018-07-17T12:10:58.199Z,100363.22
2018-07-17T12:13:26.851Z,100368.80
2018-07-17T12:15:55.795Z,100373.27
2018-07-17T12:18:24.796Z,100369.56
2018-07-17T12:20:53.774Z,100374.03
2018-07-17T12:23:23.515Z,100371.27
2018-07-17T12:25:52.057Z,100378.80
2018-07-17T12:28:21.812Z,100390.70
2018-07-17T12:30:53.286Z,100383.19
2018-07-17T12:33:24.841Z,100387.13
2018-07-17T12:35:55.388Z,100385.18
2018-07-17T12:38:24.520Z,100379.69
2018-07-17T12:40:53.217Z,100377.80
2018-07-17T12:43:23.830Z,100371.27
2018-07-17T12:46:06.403Z,100380.73
2018-07-17T12:48:36.528Z,100374.76
2018-07-17T12:51:05.847Z,100374.91
2018-07-17T12:53:39.192Z,100369.67
2018-07-17T12:56:11.264Z,100370.00
2018-07-17T12:58:40.210Z,100373.89
2018-07-17T13:01:10.073Z,100378.49
2018-07-17T13:03:38.834Z,100383.19
2018-07-17T13:06:07.599Z,100384.80
2018-07-17T13:08:36.517Z,100387.33
2018-07-17T13:11:05.627Z,100383.28
2018-07-17T13:13:34.505Z,100386.53
2018-07-17T13:16:05.059Z,100385.28
2018-07-17T13:18:35.311Z,100392.02
2018-07-17T13:21:04.196Z,100381.28
2018-07-17T13:23:33.542Z,100379.59
2018-07-17T13:26:03.267Z,100380.84
2018-07-17T13:28:32.130Z,100377.74
2018-07-17T13:31:01.095Z,100378.66
2018-07-17T13:33:30.313Z,100363.16
2018-07-17T13:36:03.752Z,100364.70
2018-07-17T13:38:33.048Z,100369.11
2018-07-17T13:41:02.266Z,100355.31
2018-07-17T13:43:31.156Z,100346.34
2018-07-17T13:46:00.208Z,100348.02
2018-07-17T13:48:28.944Z,100337.80
2018-07-17T13:50:58.677Z,100343.42
2018-07-17T13:53:27.756Z,100339.05
2018-07-17T13:55:56.555Z,100336.55
2018-07-17T13:58:25.550Z,100329.83
2018-07-17T14:00:55.309Z,100311.25
2018-07-17T14:03:24.093Z,100305.01
2018-07-17T14:05:52.685Z,100303.84
2018-07-17T14:08:21.752Z,100304.42
2018-07-17T14:10:51.431Z,100313.11
2018-07-17T14:13:20.075Z,100296.32
2018-07-17T14:15:48.940Z,100302.15
2018-07-17T14:18:17.904Z,100287.25
2018-07-17T14:20:46.544Z,100281.09
2018-07-17T14:23:15.443Z,100280.13
2018-07-17T14:25:44.130Z,100276.70
2018-07-17T14:28:12.920Z,100272.82
2018-07-17T14:30:42.070Z,100274.25
2018-07-17T14:33:10.956Z,100275.45
2018-07-17T14:35:39.647Z,100272.89
2018-07-17T14:38:08.710Z,100270.63
2018-07-17T14:40:37.230Z,100269.56
2018-07-17T14:43:06.344Z,100268.53
2018-07-17T14:45:35.218Z,100268.83
2018-07-17T14:48:05.112Z,100266.98
2018-07-17T14:50:33.702Z,100265.50
2018-07-17T14:53:02.907Z,100268.65
2018-07-17T14:55:31.438Z,100270.06
2018-07-17T14:58:00.036Z,100266.80
2018-07-17T15:00:28.940Z,100269.58
2018-07-17T15:02:57.511Z,100261.62
2018-07-17T15:05:26.105Z,100269.78
2018-07-17T15:07:54.966Z,100263.23
2018-07-17T15:10:23.631Z,100263.13
2018-07-17T15:12:52.228Z,100257.36
2018-07-17T15:15:21.097Z,100259.53
2018-07-17T15:17:49.954Z,100264.56
2018-07-17T15:20:18.652Z,100260.62
2018-07-17T15:22:47.436Z,100256.40
2018-07-17T15:25:16.057Z,100249.13
2018-07-17T15:27:44.764Z,100252.52
2018-07-17T15:30:13.724Z,100249.92
2018-07-17T15:32:42.427Z,100254.52
2018-07-17T15:35:17.483Z,100253.98
2018-07-17T15:37:46.011Z,100255.64
2018-07-17T15:40:14.867Z,100268.73
2018-07-17T15:42:43.701Z,100288.23
2018-07-17T15:45:12.320Z,100301.17
2018-07-17T15:47:40.792Z,100314.20
2018-07-17T15:50:11.994Z,100321.27
2018-07-17T15:52:43.124Z,100316.98
2018-07-17T15:55:11.774Z,100330.86
2018-07-17T15:57:40.847Z,100324.34
2018-07-17T16:00:09.614Z,100333.62
2018-07-17T16:02:38.234Z,100335.55
2018-07-17T16:05:07.090Z,100332.09
2018-07-17T16:07:35.886Z,100328.59
2018-07-17T16:10:05.620Z,100323.77
2018-07-17T16:12:35.535Z,100330.66
2018-07-17T16:15:04.352Z,100331.55
2018-07-17T16:17:33.058Z,100328.73
2018-07-17T16:20:02.998Z,100334.98
2018-07-17T16:22:31.636Z,100333.86
2018-07-17T16:25:00.447Z,100327.63
2018-07-17T16:27:29.352Z,100321.72
2018-07-17T16:29:57.980Z,100323.38
2018-07-17T16:32:26.652Z,100331.84
2018-07-17T16:34:55.576Z,100315.97
2018-07-17T16:37:24.256Z,100310.63
2018-07-17T16:39:52.792Z,100311.80
2018-07-17T16:42:21.958Z,100308.08
2018-07-17T16:44:50.890Z,100301.36
2018-07-17T16:47:20.157Z,100303.80
2018-07-17T16:49:49.033Z,100296.46
2018-07-17T16:52:18.697Z,100297.87
2018-07-17T16:54:47.963Z,100300.89
2018-07-17T16:57:19.658Z,100307.86
2018-07-17T16:59:49.111Z,100315.01
2018-07-17T17:02:38.814Z,100306.66
2018-07-17T17:05:07.977Z,100308.48
2018-07-17T17:07:37.011Z,100299.96
2018-07-17T17:10:06.481Z,100309.22
2018-07-17T17:15:11.876Z,100305.41
2018-07-17T17:17:41.026Z,100311.67
2018-07-17T17:20:09.859Z,100307.36
2018-07-17T17:22:38.557Z,100305.60
2018-07-17T17:25:07.626Z,100312.69
2018-07-17T17:27:36.312Z,100311.28
2018-07-17T17:30:07.131Z,100313.91
2018-07-17T17:32:36.211Z,100310.16
2018-07-17T17:35:05.629Z,100312.51
2018-07-17T17:37:34.476Z,100311.85
2018-07-17T17:40:05.940Z,100309.28
2018-07-17T17:42:34.688Z,100310.42
2018-07-17T17:45:03.709Z,100317.16
2018-07-17T17:47:51.738Z,100309.95
2018-07-17T17:50:41.244Z,100315.78
2018-07-17T17:53:10.180Z,100311.55
2018-07-17T17:55:38.758Z,100312.09
2018-07-17T17:58:07.648Z,100321.98
2018-07-17T18:00:36.630Z,100325.93
2018-07-17T18:03:05.491Z,100324.87
2018-07-17T18:05:34.509Z,100316.52
2018-07-17T18:08:05.089Z,100328.06
2018-07-17T18:10:38.146Z,100324.70
2018-07-17T18:13:12.482Z,100325.77
2018-07-17T18:15:41.539Z,100331.32
2018-07-17T18:18:10.450Z,100331.81
2018-07-17T18:20:40.946Z,100334.53
2018-07-17T18:26:03.972Z,100332.77
2018-07-17T18:28:33.196Z,100339.16
2018-07-17T18:31:01.820Z,100337.26
2018-07-17T18:33:30.897Z,100343.19
2018-07-17T18:35:59.711Z,100347.47
2018-07-17T18:38:28.419Z,100344.13
2018-07-17T18:40:57.244Z,100350.28
2018-07-17T18:43:25.923Z,100345.81
2018-07-17T18:45:54.481Z,100346.09
2018-07-17T18:48:23.757Z,100348.36
2018-07-17T18:50:52.415Z,100347.17
2018-07-17T18:53:21.105Z,100353.67
2018-07-17T18:55:50.073Z,100357.19
2018-07-17T18:58:19.623Z,100366.63
2018-07-17T19:00:48.291Z,100353.67
2018-07-17T19:03:17.495Z,100368.00
2018-07-17T19:05:46.161Z,100366.31
2018-07-17T19:08:15.224Z,100363.95
2018-07-17T19:10:45.000Z,100374.59
2018-07-17T19:13:13.671Z,100379.32
2018-07-17T19:15:42.484Z,100379.55
2018-07-17T19:18:11.426Z,100381.44
2018-07-17T19:20:40.043Z,100382.54
2018-07-17T19:23:08.595Z,100380.36
2018-07-17T19:25:37.996Z,100383.00
2018-07-17T19:28:06.851Z,100381.08
2018-07-17T19:30:36.291Z,100386.27
2018-07-17T19:33:06.830Z,100389.24
2018-07-17T19:35:35.790Z,100392.17
2018-07-17T19:38:06.578Z,100400.54
2018-07-17T19:40:35.140Z,100406.91
2018-07-17T19:43:04.049Z,100398.97
2018-07-17T19:45:32.616Z,100406.27
2018-07-17T19:48:01.421Z,100409.50
2018-07-17T19:50:30.193Z,100412.56
2018-07-17T19:52:59.015Z,100410.06
2018-07-17T19:55:27.733Z,100414.88
2018-07-17T19:57:56.262Z,100413.37
2018-07-17T20:00:24.952Z,100413.94
2018-07-17T20:02:53.716Z,100411.95
2018-07-17T20:05:22.305Z,100414.84
2018-07-17T20:07:50.957Z,100432.80
2018-07-17T20:10:19.801Z,100425.23
2018-07-17T20:13:18.951Z,100427.59
2018-07-17T20:15:47.926Z,100435.30
2018-07-17T20:18:18.068Z,100431.25
2018-07-17T20:20:46.731Z,100439.55
2018-07-17T20:23:15.306Z,100432.55
2018-07-17T20:25:44.647Z,100435.75
2018-07-17T20:28:13.560Z,100442.05
2018-07-17T20:30:42.303Z,100443.05
2018-07-17T20:33:11.030Z,100448.70
2018-07-17T20:35:39.694Z,100447.02
2018-07-17T20:38:09.062Z,100448.86
2018-07-17T20:40:38.186Z,100446.60
2018-07-17T20:43:07.052Z,100446.34
2018-07-17T20:45:35.696Z,100451.05
2018-07-17T20:48:05.680Z,100445.05
2018-07-17T20:50:34.865Z,100453.67
2018-07-17T20:53:03.483Z,100452.72
2018-07-17T20:55:32.177Z,100466.69
2018-07-17T20:58:01.286Z,100468.31
2018-07-17T21:00:30.138Z,100476.40
2018-07-17T21:02:58.779Z,100483.02
2018-07-17T21:05:27.461Z,100489.79
2018-07-17T21:07:56.384Z,100477.98
2018-07-17T21:10:25.068Z,100480.48
2018-07-17T21:12:53.777Z,100484.25
2018-07-17T21:15:23.822Z,100486.09
2018-07-17T21:17:52.384Z,100487.13
2018-07-17T21:20:21.102Z,100487.48
2018-07-17T21:22:49.756Z,100497.41
2018-07-17T21:25:19.008Z,100499.83
2018-07-17T21:27:47.714Z,100501.36
2018-07-17T21:30:16.643Z,100511.19
2018-07-17T21:32:45.172Z,100514.07
2018-07-17T21:35:16.814Z,100519.83
2018-07-17T21:37:45.478Z,100517.66
2018-07-17T21:40:14.295Z,100519.34
2018-07-17T21:42:44.223Z,100520.09
2018-07-17T21:45:12.920Z,100520.11
2018-07-17T21:47:41.877Z,100521.81
2018-07-17T21:50:10.963Z,100527.06
2018-07-17T21:52:40.101Z,100526.53
2018-07-17T21:55:09.110Z,100531.11
2018-07-17T21:57:37.729Z,100532.45
2018-07-17T22:00:08.973Z,100535.50
2018-07-17T22:02:37.660Z,100533.83
2018-07-17T22:05:07.262Z,100535.55
2018-07-17T22:07:36.167Z,100536.54
2018-07-17T22:10:05.683Z,100535.03
2018-07-17T22:12:34.251Z,100538.77
2018-07-17T22:15:03.971Z,100529.86
2018-07-17T22:17:32.539Z,100527.84
2018-07-17T22:20:01.203Z,100528.18
2018-07-17T22:22:29.775Z,100536.61
2018-07-17T22:24:58.283Z,100536.28
2018-07-17T22:27:26.899Z,100534.45
2018-07-17T22:29:55.507Z,100537.32
2018-07-17T22:32:24.071Z,100533.11
2018-07-17T22:34:52.572Z,100535.32
2018-07-17T22:37:21.485Z,100538.13
2018-07-17T22:39:55.480Z,100539.98
2018-07-17T22:42:24.551Z,100539.50
2018-07-17T22:44:53.110Z,100537.49
2018-07-17T22:47:22.614Z,100537.33
2018-07-17T22:49:51.501Z,100543.55
2018-07-17T22:52:20.449Z,100542.22
2018-07-17T22:54:48.908Z,100547.91
2018-07-17T22:57:17.373Z,100553.96
2018-07-17T22:59:46.815Z,100553.64
2018-07-17T23:02:15.560Z,100555.98
2018-07-17T23:04:44.044Z,100554.46
2018-07-17T23:07:12.674Z,100543.89
2018-07-17T23:09:41.314Z,100545.06
2018-07-17T23:12:10.639Z,100550.78
2018-07-17T23:14:39.189Z,100549.59
2018-07-17T23:17:07.750Z,100556.30
2018-07-17T23:19:37.005Z,100556.16
2018-07-17T23:22:06.804Z,100561.00
2018-07-17T23:24:35.276Z,100563.02
2018-07-17T23:27:04.408Z,100562.20
2018-07-17T23:29:33.398Z,100563.02
2018-07-17T23:32:01.923Z,100564.72
2018-07-17T23:34:30.399Z,100559.16
2018-07-17T23:36:58.925Z,100561.64
2018-07-17T23:39:27.890Z,100564.00
2018-07-17T23:41:56.897Z,100568.70
2018-07-17T23:44:25.394Z,100569.37
2018-07-17T23:46:53.896Z,100571.35
2018-07-17T23:49:27.933Z,100571.70
2018-07-17T23:51:56.439Z,100575.06
2018-07-17T23:54:24.917Z,100574.04
2018-07-17T23:56:53.407Z,100575.55
2018-07-17T23:59:22.073Z,100570.19
